createdAt,value
2023-03-17T00:02:23.501Z,4.60
2023-03-17T00:04:50.217Z,4.50
2023-03-17T00:07:17.703Z,4.50
2023-03-17T00:09:45.766Z,4.50
2023-03-17T00:12:13.078Z,4.50
2023-03-17T00:14:39.829Z,4.50
2023-03-17T00:17:07.122Z,4.50
2023-03-17T00:19:35.044Z,4.50
2023-03-17T00:22:03.190Z,4.50
2023-03-17T00:24:31.277Z,4.40
2023-03-17T00:26:59.348Z,4.40
2023-03-17T00:29:26.052Z,4.50
2023-03-17T00:31:53.569Z,4.40
2023-03-17T00:34:20.282Z,4.40
2023-03-17T00:36:49.499Z,4.40
2023-03-17T00:41:42.638Z,4.40
2023-03-17T00:44:10.773Z,4.40
2023-03-17T00:46:37.798Z,4.40
2023-03-17T00:49:13.870Z,4.40
2023-03-17T00:51:40.596Z,4.30
2023-03-17T00:54:09.038Z,4.30
2023-03-17T00:56:37.648Z,4.30
2023-03-17T00:59:04.543Z,4.30
2023-03-17T01:01:32.626Z,4.30
2023-03-17T01:03:59.424Z,4.20
2023-03-17T01:06:26.153Z,4.20
2023-03-17T01:08:53.117Z,4.20
2023-03-17T01:11:20.553Z,4.20
2023-03-17T01:13:47.498Z,4.20
2023-03-17T01:16:14.831Z,4.20
2023-03-17T01:18:43.584Z,4.30
2023-03-17T01:21:11.500Z,4.20
2023-03-17T01:23:38.323Z,4.20
2023-03-17T01:26:05.704Z,4.20
2023-03-17T01:28:32.578Z,4.20
2023-03-17T01:30:59.562Z,4.20
2023-03-17T01:33:26.385Z,4.20
2023-03-17T01:35:54.756Z,4.20
2023-03-17T01:38:21.546Z,4.20
2023-03-17T01:40:50.955Z,4.10
2023-03-17T01:43:21.146Z,4.10
2023-03-17T01:46:24.926Z,4.10
2023-03-17T01:49:01.855Z,4.00
2023-03-17T01:51:33.475Z,4.00
2023-03-17T01:54:05.020Z,4.00
2023-03-17T01:56:32.165Z,4.00
2023-03-17T01:59:02.900Z,3.90
2023-03-17T02:01:36.582Z,4.00
2023-03-17T02:04:03.864Z,3.90
2023-03-17T02:06:32.345Z,3.90
2023-03-17T02:09:00.564Z,3.90
2023-03-17T02:11:28.355Z,3.80
2023-03-17T02:13:55.079Z,3.80
2023-03-17T02:16:22.176Z,3.70
2023-03-17T02:18:49.085Z,3.70
2023-03-17T02:21:36.860Z,3.70
2023-03-17T02:24:08.290Z,3.80
2023-03-17T02:26:36.513Z,3.80
2023-03-17T02:29:04.420Z,3.80
2023-03-17T02:31:31.226Z,3.80
2023-03-17T02:33:57.960Z,3.70
2023-03-17T02:36:25.021Z,3.70
2023-03-17T02:38:53.510Z,3.70
2023-03-17T02:41:20.250Z,3.70
2023-03-17T02:43:47.072Z,3.70
2023-03-17T02:46:14.056Z,3.70
2023-03-17T02:48:41.376Z,3.70
2023-03-17T02:51:08.097Z,3.70
2023-03-17T02:53:35.013Z,3.70
2023-03-17T02:56:04.011Z,3.70
2023-03-17T02:58:30.751Z,3.70
2023-03-17T03:00:57.609Z,3.70
2023-03-17T03:03:24.401Z,3.70
2023-03-17T03:05:51.123Z,3.70
2023-03-17T03:08:17.844Z,3.70
2023-03-17T03:10:44.625Z,3.70
2023-03-17T03:13:12.716Z,3.60
2023-03-17T03:15:41.761Z,3.60
2023-03-17T03:18:08.748Z,3.70
2023-03-17T03:20:35.914Z,3.60
2023-03-17T03:23:02.756Z,3.60
2023-03-17T03:25:29.526Z,3.60
2023-03-17T03:27:56.257Z,3.60
2023-03-17T03:30:24.408Z,3.70
2023-03-17T03:32:51.184Z,3.60
2023-03-17T03:35:18.046Z,3.60
2023-03-17T03:37:44.764Z,3.60
2023-03-17T03:40:12.592Z,3.60
2023-03-17T03:42:39.341Z,3.60
2023-03-17T03:45:07.011Z,3.60
2023-03-17T03:47:35.309Z,3.60
2023-03-17T03:50:02.177Z,3.60
2023-03-17T03:52:28.958Z,3.60
2023-03-17T03:54:55.800Z,3.60
2023-03-17T03:57:22.551Z,3.60
2023-03-17T03:59:49.318Z,3.60
2023-03-17T04:02:16.069Z,3.60
2023-03-17T04:04:45.031Z,3.50
2023-03-17T04:07:11.878Z,3.50
2023-03-17T04:09:38.834Z,3.60
2023-03-17T04:12:06.569Z,3.60
2023-03-17T04:14:33.666Z,3.60
2023-03-17T04:17:00.440Z,3.50
2023-03-17T04:19:27.224Z,3.50
2023-03-17T04:21:55.426Z,3.50
2023-03-17T04:24:22.194Z,3.60
2023-03-17T04:26:48.905Z,3.50
2023-03-17T04:29:15.651Z,3.50
2023-03-17T04:31:42.493Z,3.50
2023-03-17T04:34:14.063Z,3.50
2023-03-17T04:36:40.807Z,3.50
2023-03-17T04:39:09.032Z,3.50
2023-03-17T04:41:35.758Z,3.50
2023-03-17T04:44:02.747Z,3.50
2023-03-17T04:46:29.619Z,3.50
2023-03-17T04:48:56.582Z,3.50
2023-03-17T04:51:23.354Z,3.40
2023-03-17T04:53:50.760Z,3.50
2023-03-17T04:56:19.230Z,3.40
2023-03-17T04:58:45.963Z,3.40
2023-03-17T05:01:12.942Z,3.40
2023-03-17T05:03:39.697Z,3.40
2023-03-17T05:06:07.043Z,3.40
2023-03-17T05:08:33.783Z,3.40
2023-03-17T05:11:00.797Z,3.40
2023-03-17T05:13:28.991Z,3.40
2023-03-17T05:15:56.113Z,3.40
2023-03-17T05:18:25.006Z,3.40
2023-03-17T05:20:52.155Z,3.40
2023-03-17T05:23:19.146Z,3.40
2023-03-17T05:25:45.936Z,3.30
2023-03-17T05:28:12.693Z,3.40
2023-03-17T05:30:42.159Z,3.40
2023-03-17T05:33:08.975Z,3.40
2023-03-17T05:35:35.973Z,3.40
2023-03-17T05:38:02.745Z,3.40
2023-03-17T05:40:29.816Z,3.40
2023-03-17T05:42:56.721Z,3.40
2023-03-17T05:45:23.468Z,3.30
2023-03-17T05:47:51.678Z,3.40
2023-03-17T05:50:18.751Z,3.30
2023-03-17T05:52:45.553Z,3.40
2023-03-17T05:55:12.262Z,3.40
2023-03-17T05:57:39.080Z,3.30
2023-03-17T06:00:06.828Z,3.30
2023-03-17T06:02:33.908Z,3.40
2023-03-17T06:05:01.988Z,3.40
2023-03-17T06:07:38.169Z,3.40
2023-03-17T06:10:15.615Z,3.40
2023-03-17T06:12:42.367Z,3.40
2023-03-17T06:15:09.632Z,3.30
2023-03-17T06:17:36.681Z,3.30
2023-03-17T06:20:06.151Z,3.30
2023-03-17T06:22:32.957Z,3.40
2023-03-17T06:24:59.847Z,3.40
2023-03-17T06:27:26.728Z,3.40
2023-03-17T06:29:53.489Z,3.40
2023-03-17T06:32:21.032Z,3.30
2023-03-17T06:34:47.964Z,3.40
2023-03-17T06:37:16.015Z,3.40
2023-03-17T06:39:42.847Z,3.40
2023-03-17T06:42:09.843Z,3.40
2023-03-17T06:44:36.730Z,3.40
2023-03-17T06:47:03.688Z,3.40
2023-03-17T06:49:30.625Z,3.40
2023-03-17T06:51:57.368Z,3.50
2023-03-17T06:54:25.735Z,3.50
2023-03-17T06:56:53.054Z,3.50
2023-03-17T06:59:21.134Z,3.50
2023-03-17T07:01:48.249Z,3.60
2023-03-17T07:04:15.411Z,3.70
2023-03-17T07:06:42.288Z,3.80
2023-03-17T07:09:09.090Z,3.90
2023-03-17T07:11:37.221Z,3.90
2023-03-17T07:14:03.999Z,4.00
2023-03-17T07:16:30.830Z,4.00
2023-03-17T07:18:57.621Z,4.10
2023-03-17T07:21:24.498Z,4.10
2023-03-17T07:23:51.288Z,4.10
2023-03-17T07:26:18.190Z,4.10
2023-03-17T07:28:46.292Z,4.20
2023-03-17T07:31:13.171Z,4.20
2023-03-17T07:33:40.070Z,4.20
2023-03-17T07:36:07.901Z,4.30
2023-03-17T07:38:34.967Z,4.30
2023-03-17T07:41:01.769Z,4.40
2023-03-17T07:43:28.526Z,4.40
2023-03-17T07:45:56.645Z,4.40
2023-03-17T07:48:23.376Z,4.40
2023-03-17T07:50:50.110Z,4.50
2023-03-17T07:53:16.878Z,4.50
2023-03-17T07:55:43.685Z,4.50
2023-03-17T07:58:10.418Z,4.60
2023-03-17T08:00:37.215Z,4.60
2023-03-17T08:03:10.113Z,4.70
2023-03-17T08:05:37.348Z,4.70
2023-03-17T08:08:04.257Z,4.70
2023-03-17T08:10:31.409Z,4.70
2023-03-17T08:12:58.266Z,4.70
2023-03-17T08:15:24.998Z,4.80
2023-03-17T08:17:51.736Z,4.80
2023-03-17T08:20:20.149Z,4.80
2023-03-17T08:22:46.927Z,4.90
2023-03-17T08:25:19.679Z,4.90
2023-03-17T08:27:46.496Z,4.90
2023-03-17T08:30:13.677Z,5.00
2023-03-17T08:32:40.539Z,5.00
2023-03-17T08:35:07.850Z,5.00
2023-03-17T08:37:36.485Z,5.00
2023-03-17T08:40:03.509Z,5.10
2023-03-17T08:42:30.250Z,5.10
2023-03-17T08:44:57.148Z,5.10
2023-03-17T08:47:24.051Z,5.10
2023-03-17T08:49:50.778Z,5.20
2023-03-17T08:52:17.736Z,5.20
2023-03-17T08:54:45.864Z,5.20
2023-03-17T08:57:15.288Z,5.30
2023-03-17T08:59:42.535Z,5.20
2023-03-17T09:02:10.700Z,5.30
2023-03-17T09:04:40.007Z,5.30
2023-03-17T09:07:09.622Z,5.40
2023-03-17T09:09:37.099Z,5.40
2023-03-17T09:12:06.977Z,5.40
2023-03-17T09:14:42.897Z,5.40
2023-03-17T09:17:10.719Z,5.40
2023-03-17T09:19:37.467Z,5.50
2023-03-17T09:22:04.326Z,5.50
2023-03-17T09:24:31.059Z,5.60
2023-03-17T09:26:57.796Z,5.50
2023-03-17T09:29:25.960Z,5.60
2023-03-17T09:31:53.836Z,5.60
2023-03-17T09:34:20.579Z,5.60
2023-03-17T09:36:47.311Z,5.70
2023-03-17T09:39:14.073Z,5.70
2023-03-17T09:42:16.881Z,5.70
2023-03-17T09:45:01.616Z,5.70
2023-03-17T09:47:52.985Z,5.80
2023-03-17T09:50:24.785Z,5.80
2023-03-17T09:52:54.908Z,5.80
2023-03-17T09:55:27.213Z,5.80
2023-03-17T09:57:55.753Z,5.80
2023-03-17T10:00:25.896Z,5.90
2023-03-17T10:02:53.216Z,5.90
2023-03-17T10:05:22.639Z,5.90
2023-03-17T10:07:56.140Z,6.00
2023-03-17T10:10:29.853Z,6.00
2023-03-17T10:13:08.173Z,6.00
2023-03-17T10:15:43.865Z,6.10
2023-03-17T10:18:12.892Z,6.10
2023-03-17T10:20:50.470Z,6.10
2023-03-17T10:23:21.280Z,6.20
2023-03-17T10:25:48.027Z,6.20
2023-03-17T10:28:25.647Z,6.20
2023-03-17T10:30:54.248Z,6.20
2023-03-17T10:33:21.238Z,6.30
2023-03-17T10:35:48.091Z,6.30
2023-03-17T10:38:17.342Z,6.40
2023-03-17T10:40:47.179Z,6.40
2023-03-17T10:43:18.257Z,6.40
2023-03-17T10:45:55.075Z,6.40
2023-03-17T10:48:23.142Z,6.40
2023-03-17T10:50:49.966Z,6.50
2023-03-17T10:53:21.669Z,6.50
2023-03-17T10:55:50.307Z,6.50
2023-03-17T10:58:19.529Z,6.50
2023-03-17T11:00:55.556Z,6.60
2023-03-17T11:03:27.237Z,6.60
2023-03-17T11:06:01.343Z,6.60
2023-03-17T11:08:31.014Z,6.70
2023-03-17T11:10:57.736Z,6.70
2023-03-17T11:13:29.097Z,6.70
2023-03-17T11:16:08.242Z,6.70
2023-03-17T11:18:38.075Z,6.80
2023-03-17T11:21:09.497Z,6.80
2023-03-17T11:23:59.440Z,6.80
2023-03-17T11:26:45.623Z,6.80
2023-03-17T11:29:26.631Z,6.90
2023-03-17T11:32:00.813Z,6.90
2023-03-17T11:34:46.034Z,6.90
2023-03-17T11:37:25.617Z,6.90
2023-03-17T11:40:00.208Z,6.90
2023-03-17T11:42:31.422Z,7.00
2023-03-17T11:45:21.171Z,7.00
2023-03-17T11:48:06.200Z,7.00
2023-03-17T11:50:40.495Z,7.10
2023-03-17T11:53:19.696Z,7.10
2023-03-17T11:55:51.316Z,7.10
2023-03-17T11:58:28.821Z,7.10
2023-03-17T12:00:58.525Z,7.20
2023-03-17T12:03:31.538Z,7.20
2023-03-17T12:06:03.611Z,7.20
2023-03-17T12:08:37.560Z,7.20
2023-03-17T12:11:09.054Z,7.30
2023-03-17T12:13:38.843Z,7.30
2023-03-17T12:16:08.570Z,7.30
2023-03-17T12:18:39.790Z,7.40
2023-03-17T12:21:12.330Z,7.40
2023-03-17T12:23:52.357Z,7.40
2023-03-17T12:26:22.861Z,7.50
2023-03-17T12:28:56.187Z,7.40
2023-03-17T12:31:27.014Z,7.50
2023-03-17T12:33:59.676Z,7.50
2023-03-17T12:36:28.377Z,7.50
2023-03-17T12:39:00.218Z,7.50
2023-03-17T12:41:42.104Z,7.50
2023-03-17T12:44:20.143Z,7.60
2023-03-17T12:47:17.369Z,7.60
2023-03-17T12:50:25.892Z,7.60
2023-03-17T12:53:15.783Z,7.60
2023-03-17T12:55:46.363Z,7.70
2023-03-17T12:58:29.938Z,7.60
2023-03-17T13:01:05.709Z,7.70
2023-03-17T13:03:34.166Z,7.70
2023-03-17T13:06:03.073Z,7.70
2023-03-17T13:08:33.773Z,7.70
2023-03-17T13:11:18.511Z,7.70
2023-03-17T13:13:55.407Z,7.80
2023-03-17T13:16:33.735Z,7.80
2023-03-17T13:19:19.356Z,7.80
2023-03-17T13:21:50.809Z,7.80
2023-03-17T13:24:41.106Z,7.90
2023-03-17T13:27:12.482Z,7.90
2023-03-17T13:29:43.115Z,7.90
2023-03-17T13:32:37.634Z,7.90
2023-03-17T13:35:25.107Z,7.90
2023-03-17T13:38:23.613Z,7.90
2023-03-17T13:41:02.436Z,8.00
2023-03-17T13:43:58.146Z,7.90
2023-03-17T13:46:34.319Z,7.90
2023-03-17T13:49:03.291Z,8.00
2023-03-17T13:51:33.234Z,8.00
2023-03-17T13:54:08.449Z,8.00
2023-03-17T13:56:49.832Z,8.00
2023-03-17T13:59:18.351Z,8.00
2023-03-17T14:01:50.082Z,8.10
2023-03-17T14:04:20.335Z,8.10
2023-03-17T14:06:49.399Z,8.10
2023-03-17T14:09:34.022Z,8.10
2023-03-17T14:12:06.466Z,8.20
2023-03-17T14:14:41.059Z,8.10
2023-03-17T14:17:13.446Z,8.20
2023-03-17T14:19:40.430Z,8.20
2023-03-17T14:22:20.588Z,8.20
2023-03-17T14:24:51.837Z,8.20
2023-03-17T14:27:21.160Z,8.20
2023-03-17T14:29:48.108Z,8.20
2023-03-17T14:32:17.543Z,8.30
2023-03-17T14:34:45.100Z,8.30
2023-03-17T14:37:12.628Z,8.30
2023-03-17T14:39:44.909Z,8.30
2023-03-17T14:42:12.640Z,8.30
2023-03-17T14:44:42.209Z,8.30
2023-03-17T14:47:16.216Z,8.30
2023-03-17T14:49:43.179Z,8.30
2023-03-17T14:52:19.566Z,8.40
2023-03-17T14:54:50.888Z,8.40
2023-03-17T14:57:17.827Z,8.40
2023-03-17T14:59:56.476Z,8.40
2023-03-17T15:02:28.288Z,8.40
2023-03-17T15:04:58.578Z,8.50
2023-03-17T15:07:32.094Z,8.50
2023-03-17T15:09:59.634Z,8.50
2023-03-17T15:12:26.809Z,8.50
2023-03-17T15:14:58.497Z,8.50
2023-03-17T15:17:30.917Z,8.60
2023-03-17T15:20:01.689Z,8.60
2023-03-17T15:22:31.712Z,8.60
2023-03-17T15:25:01.219Z,8.60
2023-03-17T15:27:29.628Z,8.60
2023-03-17T15:29:57.948Z,8.60
2023-03-17T15:32:26.093Z,8.60
2023-03-17T15:34:54.688Z,8.70
2023-03-17T15:37:23.614Z,8.70
2023-03-17T15:39:51.229Z,8.80
2023-03-17T15:42:19.564Z,8.80
2023-03-17T15:44:46.355Z,8.80
2023-03-17T15:47:16.534Z,8.80
2023-03-17T15:49:43.372Z,8.90
2023-03-17T15:52:15.510Z,8.90
2023-03-17T15:54:42.283Z,8.90
2023-03-17T15:57:10.531Z,8.90
2023-03-17T15:59:37.362Z,9.00
2023-03-17T16:02:11.538Z,9.00
2023-03-17T16:04:39.518Z,9.00
2023-03-17T16:07:11.739Z,9.00
2023-03-17T16:09:38.512Z,9.00
2023-03-17T16:12:05.533Z,9.00
2023-03-17T16:14:32.270Z,9.10
2023-03-17T16:16:59.042Z,9.10
2023-03-17T16:19:25.826Z,9.00
2023-03-17T16:21:53.941Z,9.10
2023-03-17T16:24:23.034Z,9.10
2023-03-17T16:26:50.308Z,9.10
2023-03-17T16:29:18.190Z,9.10
2023-03-17T16:31:47.366Z,9.10
2023-03-17T16:34:15.754Z,9.10
2023-03-17T16:36:42.475Z,9.10
2023-03-17T16:39:15.763Z,9.00
2023-03-17T16:41:42.682Z,9.10
2023-03-17T16:44:11.688Z,9.00
2023-03-17T16:46:39.091Z,9.00
2023-03-17T16:49:06.406Z,9.00
2023-03-17T16:51:33.242Z,9.00
2023-03-17T16:54:00.001Z,9.10
2023-03-17T16:56:28.301Z,9.00
2023-03-17T16:58:55.244Z,9.00
2023-03-17T17:01:25.082Z,9.00
2023-03-17T17:03:52.356Z,9.00
2023-03-17T17:06:20.881Z,9.00
2023-03-17T17:08:48.728Z,9.00
2023-03-17T17:11:17.605Z,9.00
2023-03-17T17:13:47.163Z,9.00
2023-03-17T17:16:20.314Z,9.00
2023-03-17T17:18:47.151Z,9.00
2023-03-17T17:21:14.110Z,9.00
2023-03-17T17:23:40.868Z,9.00
2023-03-17T17:26:07.634Z,9.00
2023-03-17T17:28:34.385Z,9.00
2023-03-17T17:31:02.523Z,9.00
2023-03-17T17:33:29.256Z,9.00
2023-03-17T17:35:56.157Z,9.00
2023-03-17T17:38:24.941Z,9.00
2023-03-17T17:40:51.676Z,9.00
2023-03-17T17:43:18.507Z,9.00
2023-03-17T17:45:46.605Z,9.00
2023-03-17T17:48:15.046Z,9.00
2023-03-17T17:50:42.092Z,9.00
2023-03-17T17:53:09.155Z,9.00
2023-03-17T17:55:35.961Z,9.00
2023-03-17T17:58:03.038Z,9.00
2023-03-17T18:00:30.431Z,9.00
2023-03-17T18:02:57.328Z,9.00
2023-03-17T18:05:25.460Z,9.00
2023-03-17T18:07:52.212Z,9.00
2023-03-17T18:10:22.097Z,9.00
2023-03-17T18:12:48.881Z,9.00
2023-03-17T18:15:15.853Z,9.00
2023-03-17T18:17:43.101Z,9.00
2023-03-17T18:20:12.376Z,9.00
2023-03-17T18:22:41.007Z,9.00
2023-03-17T18:25:09.763Z,9.00
2023-03-17T18:27:37.074Z,9.00
2023-03-17T18:30:07.101Z,9.00
2023-03-17T18:32:34.168Z,9.00
2023-03-17T18:35:04.765Z,9.00
2023-03-17T18:37:32.075Z,8.90
2023-03-17T18:40:13.497Z,9.00
2023-03-17T18:42:42.040Z,8.90
2023-03-17T18:45:10.502Z,8.90
2023-03-17T18:47:37.557Z,9.00
2023-03-17T18:50:05.541Z,9.00
2023-03-17T18:52:32.325Z,8.90
2023-03-17T18:55:00.813Z,8.90
2023-03-17T18:57:27.941Z,8.90
2023-03-17T18:59:54.853Z,8.80
2023-03-17T19:02:22.461Z,8.90
2023-03-17T19:04:49.279Z,8.90
2023-03-17T19:07:16.600Z,8.90
2023-03-17T19:09:43.766Z,8.80
2023-03-17T19:12:11.921Z,8.80
2023-03-17T19:14:38.990Z,8.80
2023-03-17T19:17:06.024Z,8.80
2023-03-17T19:19:33.486Z,8.70
2023-03-17T19:22:00.472Z,8.70
2023-03-17T19:24:27.411Z,8.70
2023-03-17T19:26:54.249Z,8.70
2023-03-17T19:29:22.447Z,8.60
2023-03-17T19:31:49.294Z,8.60
2023-03-17T19:34:16.228Z,8.60
2023-03-17T19:36:44.542Z,8.50
2023-03-17T19:39:12.600Z,8.50
2023-03-17T19:41:39.327Z,8.40
2023-03-17T19:44:06.507Z,8.40
2023-03-17T19:46:35.064Z,8.40
2023-03-17T19:49:02.044Z,8.40
2023-03-17T19:51:29.340Z,8.30
2023-03-17T19:53:56.287Z,8.30
2023-03-17T19:56:23.262Z,8.30
2023-03-17T19:58:50.048Z,8.30
2023-03-17T20:01:17.186Z,8.30
2023-03-17T20:03:45.528Z,8.30
2023-03-17T20:06:13.062Z,8.20
2023-03-17T20:08:40.233Z,8.20
2023-03-17T20:11:07.595Z,8.20
2023-03-17T20:13:38.503Z,8.20
2023-03-17T20:16:09.632Z,8.20
2023-03-17T20:18:40.067Z,8.10
2023-03-17T20:21:15.418Z,8.10
2023-03-17T20:23:43.084Z,8.10
2023-03-17T20:26:10.453Z,8.00
2023-03-17T20:28:37.189Z,8.00
2023-03-17T20:31:04.858Z,8.00
2023-03-17T20:33:32.572Z,8.00
2023-03-17T20:35:59.901Z,8.00
2023-03-17T20:38:28.255Z,7.90
2023-03-17T20:41:04.798Z,7.90
2023-03-17T20:43:31.663Z,7.90
2023-03-17T20:45:58.448Z,7.90
2023-03-17T20:48:25.590Z,7.80
2023-03-17T20:50:52.537Z,7.80
2023-03-17T20:53:19.668Z,7.80
2023-03-17T20:55:49.462Z,7.80
2023-03-17T20:58:16.676Z,7.80
2023-03-17T21:00:47.253Z,7.70
2023-03-17T21:03:14.538Z,7.70
2023-03-17T21:05:44.595Z,7.70
2023-03-17T21:08:17.590Z,7.60
2023-03-17T21:10:45.214Z,7.60
2023-03-17T21:13:16.627Z,7.70
2023-03-17T21:15:43.977Z,7.70
2023-03-17T21:18:13.580Z,7.70
2023-03-17T21:20:42.140Z,7.60
2023-03-17T21:23:09.622Z,7.60
2023-03-17T21:25:36.878Z,7.50
2023-03-17T21:28:04.576Z,7.50
2023-03-17T21:30:33.606Z,7.40
2023-03-17T21:33:03.420Z,7.40
2023-03-17T21:35:31.036Z,7.40
2023-03-17T21:37:59.597Z,7.30
2023-03-17T21:40:27.295Z,7.30
2023-03-17T21:42:56.619Z,7.30
2023-03-17T21:45:25.986Z,7.30
2023-03-17T21:47:54.893Z,7.20
2023-03-17T21:50:22.067Z,7.30
2023-03-17T21:52:49.352Z,7.20
2023-03-17T21:55:16.902Z,7.20
2023-03-17T21:57:44.478Z,7.20
2023-03-17T22:00:12.782Z,7.20
2023-03-17T22:02:41.630Z,7.10
2023-03-17T22:05:10.748Z,7.10
2023-03-17T22:07:39.286Z,7.10
2023-03-17T22:10:06.997Z,7.00
2023-03-17T22:12:34.387Z,7.00
2023-03-17T22:15:01.212Z,6.90
2023-03-17T22:17:27.965Z,6.90
2023-03-17T22:19:54.741Z,7.00
2023-03-17T22:22:23.349Z,7.00
2023-03-17T22:24:50.384Z,7.00
2023-03-17T22:27:18.126Z,7.00
2023-03-17T22:29:45.093Z,6.90
2023-03-17T22:32:11.990Z,6.80
2023-03-17T22:34:38.741Z,6.70
2023-03-17T22:37:05.900Z,6.70
2023-03-17T22:39:34.014Z,6.80
2023-03-17T22:42:00.933Z,6.80
2023-03-17T22:44:27.648Z,6.80
2023-03-17T22:46:54.469Z,6.80
2023-03-17T22:49:21.210Z,6.80
2023-03-17T22:51:47.933Z,6.70
2023-03-17T22:54:14.677Z,6.70
2023-03-17T22:56:42.803Z,6.70
2023-03-17T22:59:09.513Z,6.80
2023-03-17T23:01:36.421Z,6.80
2023-03-17T23:04:03.244Z,6.70
2023-03-17T23:06:30.028Z,6.70
2023-03-17T23:08:56.762Z,6.70
2023-03-17T23:11:25.593Z,6.60
2023-03-17T23:13:53.761Z,6.60
2023-03-17T23:16:21.034Z,6.60
2023-03-17T23:18:47.808Z,6.60
2023-03-17T23:21:20.928Z,6.50
2023-03-17T23:23:47.680Z,6.60
2023-03-17T23:26:14.397Z,6.60
2023-03-17T23:28:41.151Z,6.50
2023-03-17T23:31:09.266Z,6.50
2023-03-17T23:33:36.135Z,6.50
2023-03-17T23:36:03.375Z,6.50
2023-03-17T23:38:30.165Z,6.50
2023-03-17T23:40:57.428Z,6.50
2023-03-17T23:43:24.329Z,6.50
2023-03-17T23:45:52.438Z,6.40
2023-03-17T23:48:20.665Z,6.40
2023-03-17T23:50:50.415Z,6.40
2023-03-17T23:53:17.156Z,6.40
2023-03-17T23:55:44.046Z,6.40
2023-03-17T23:58:10.957Z,6.30
